createdAt,value
2018-09-22T00:01:57.092Z,3.27
2018-09-22T00:04:26.837Z,3.00
2018-09-22T00:06:56.511Z,2.70
2018-09-22T00:09:26.228Z,3.10
2018-09-22T00:11:55.902Z,3.37
2018-09-22T00:14:25.633Z,2.83
2018-09-22T00:16:55.564Z,2.87
2018-09-22T00:19:25.438Z,3.00
2018-09-22T00:21:55.172Z,3.93
2018-09-22T00:24:24.819Z,4.77
2018-09-22T00:26:54.669Z,2.90
2018-09-22T00:29:24.421Z,2.97
2018-09-22T00:31:54.120Z,3.00
2018-09-22T00:34:23.772Z,2.93
2018-09-22T00:36:53.455Z,3.33
2018-09-22T00:39:23.127Z,2.50
2018-09-22T00:41:52.893Z,3.37
2018-09-22T00:44:22.531Z,4.07
2018-09-22T00:46:52.323Z,3.00
2018-09-22T00:49:21.936Z,5.50
2018-09-22T00:51:51.629Z,2.93
2018-09-22T00:54:21.381Z,2.83
2018-09-22T00:56:51.039Z,3.10
2018-09-22T00:59:20.788Z,3.00
2018-09-22T01:01:50.485Z,2.77
2018-09-22T01:04:20.248Z,2.93
2018-09-22T01:06:49.917Z,3.87
2018-09-22T01:09:19.662Z,2.93
2018-09-22T01:11:49.417Z,2.70
2018-09-22T01:14:19.222Z,3.97
2018-09-22T01:16:48.904Z,2.80
2018-09-22T01:19:18.605Z,3.50
2018-09-22T01:21:48.401Z,2.67
2018-09-22T01:24:18.092Z,2.77
2018-09-22T01:26:47.755Z,3.40
2018-09-22T01:29:17.515Z,3.40
2018-09-22T01:31:47.249Z,2.97
2018-09-22T01:34:16.924Z,3.10
2018-09-22T01:36:46.630Z,3.33
2018-09-22T01:39:16.276Z,2.87
2018-09-22T01:41:45.953Z,2.77
2018-09-22T01:44:15.612Z,3.73
2018-09-22T01:46:45.276Z,3.80
2018-09-22T01:49:14.998Z,2.50
2018-09-22T01:51:44.659Z,2.93
2018-09-22T01:54:14.361Z,3.23
2018-09-22T01:56:44.006Z,2.95
2018-09-22T01:59:13.749Z,2.60
2018-09-22T02:01:43.406Z,3.63
2018-09-22T02:04:13.090Z,2.97
2018-09-22T02:06:42.885Z,3.40
2018-09-22T02:09:12.644Z,3.47
2018-09-22T02:11:42.349Z,2.80
2018-09-22T02:14:12.273Z,3.50
2018-09-22T02:16:41.923Z,3.70
2018-09-22T02:19:11.903Z,2.77
2018-09-22T02:21:41.578Z,3.37
2018-09-22T02:24:11.540Z,3.30
2018-09-22T02:26:41.197Z,3.13
2018-09-22T02:29:10.881Z,2.63
2018-09-22T02:31:40.575Z,2.93
2018-09-22T02:34:10.316Z,2.87
2018-09-22T02:36:40.002Z,3.10
2018-09-22T02:39:11.002Z,4.47
2018-09-22T02:41:40.759Z,2.93
2018-09-22T02:44:10.445Z,2.77
2018-09-22T02:46:40.112Z,2.63
2018-09-22T02:49:09.812Z,3.02
2018-09-22T02:51:39.567Z,3.37
2018-09-22T02:54:09.339Z,3.42
2018-09-22T02:56:39.111Z,2.50
2018-09-22T02:59:08.918Z,2.80
2018-09-22T03:01:38.650Z,2.60
2018-09-22T03:04:08.639Z,3.07
2018-09-22T03:06:38.353Z,2.97
2018-09-22T03:09:10.406Z,3.37
2018-09-22T03:11:40.232Z,2.93
2018-09-22T03:14:10.342Z,2.40
2018-09-22T03:16:40.500Z,3.00
2018-09-22T03:19:10.249Z,3.10
2018-09-22T03:21:39.931Z,3.10
2018-09-22T03:24:09.673Z,3.00
2018-09-22T03:26:39.339Z,2.43
2018-09-22T03:29:09.202Z,2.70
2018-09-22T03:31:38.949Z,2.67
2018-09-22T03:34:08.614Z,2.80
2018-09-22T03:36:38.342Z,2.40
2018-09-22T03:39:10.361Z,2.33
2018-09-22T03:41:40.549Z,2.70
2018-09-22T03:44:10.769Z,2.50
2018-09-22T03:46:40.508Z,2.95
2018-09-22T03:49:10.146Z,3.40
2018-09-22T03:51:40.113Z,3.07
2018-09-22T03:54:09.749Z,2.70
2018-09-22T03:56:39.572Z,3.52
2018-09-22T03:59:09.242Z,3.07
2018-09-22T04:01:39.001Z,2.83
2018-09-22T04:04:08.802Z,2.02
2018-09-22T04:06:38.585Z,3.98
2018-09-22T04:09:08.818Z,2.50
2018-09-22T04:11:38.552Z,3.37
2018-09-22T04:14:08.239Z,2.95
2018-09-22T04:16:37.952Z,3.57
2018-09-22T04:19:07.769Z,3.90
2018-09-22T04:21:37.522Z,2.50
2018-09-22T04:24:14.607Z,2.65
2018-09-22T04:26:44.263Z,2.83
2018-09-22T04:29:13.969Z,2.77
2018-09-22T04:31:43.785Z,2.67
2018-09-22T04:34:13.487Z,2.70
2018-09-22T04:36:43.830Z,2.97
2018-09-22T04:39:13.573Z,2.45
2018-09-22T04:41:44.661Z,2.47
2018-09-22T04:44:14.399Z,3.20
2018-09-22T04:46:44.112Z,1.82
2018-09-22T04:49:13.883Z,4.28
2018-09-22T04:51:43.641Z,1.90
2018-09-22T04:54:13.330Z,2.33
2018-09-22T04:56:42.965Z,3.30
2018-09-22T04:59:12.604Z,2.50
2018-09-22T05:01:42.260Z,2.83
2018-09-22T05:04:12.161Z,2.47
2018-09-22T05:06:41.863Z,2.90
2018-09-22T05:09:13.008Z,3.80
2018-09-22T05:11:42.747Z,2.55
2018-09-22T05:14:12.593Z,2.17
2018-09-22T05:16:42.370Z,2.87
2018-09-22T05:19:12.029Z,2.92
2018-09-22T05:21:41.719Z,2.90
2018-09-22T05:24:11.409Z,2.90
2018-09-22T05:26:41.247Z,2.33
2018-09-22T05:29:11.077Z,3.17
2018-09-22T05:31:40.721Z,2.93
2018-09-22T05:34:10.641Z,3.37
2018-09-22T05:36:40.599Z,3.30
2018-09-22T05:39:11.115Z,1.80
2018-09-22T05:41:40.947Z,2.43
2018-09-22T05:44:10.671Z,2.20
2018-09-22T05:46:40.373Z,2.20
2018-09-22T05:49:10.241Z,2.43
2018-09-22T05:51:40.111Z,2.50
2018-09-22T05:54:10.397Z,2.40
2018-09-22T05:56:40.127Z,2.70
2018-09-22T05:59:10.177Z,2.57
2018-09-22T06:01:39.922Z,2.37
2018-09-22T06:04:09.550Z,2.50
2018-09-22T06:06:39.346Z,2.73
2018-09-22T06:09:10.530Z,2.20
2018-09-22T06:11:40.296Z,2.00
2018-09-22T06:14:10.016Z,2.87
2018-09-22T06:16:39.720Z,3.60
2018-09-22T06:19:09.477Z,3.80
2018-09-22T06:21:39.171Z,2.93
2018-09-22T06:24:08.943Z,3.13
2018-09-22T06:26:38.600Z,2.63
2018-09-22T06:29:08.377Z,3.27
2018-09-22T06:31:38.037Z,3.37
2018-09-22T06:34:07.805Z,3.20
2018-09-22T06:36:37.669Z,3.70
2018-09-22T06:39:10.600Z,3.87
2018-09-22T06:41:40.346Z,3.77
2018-09-22T06:44:10.396Z,3.50
2018-09-22T06:46:40.095Z,2.60
2018-09-22T06:49:09.816Z,2.77
2018-09-22T06:51:39.442Z,3.03
2018-09-22T06:54:09.625Z,2.63
2018-09-22T06:56:39.260Z,2.60
2018-09-22T06:59:09.676Z,3.13
2018-09-22T07:01:39.388Z,2.53
2018-09-22T07:04:09.457Z,4.77
2018-09-22T07:06:39.447Z,2.97
2018-09-22T07:09:09.460Z,2.97
2018-09-22T07:11:39.502Z,3.03
2018-09-22T07:14:09.162Z,3.10
2018-09-22T07:16:38.870Z,3.67
2018-09-22T07:19:08.744Z,2.70
2018-09-22T07:21:43.659Z,3.00
2018-09-22T07:24:13.353Z,2.97
2018-09-22T07:26:43.066Z,3.30
2018-09-22T07:29:12.896Z,3.10
2018-09-22T07:31:42.616Z,2.60
2018-09-22T07:34:12.329Z,4.17
2018-09-22T07:36:42.080Z,3.70
2018-09-22T07:39:12.808Z,4.20
2018-09-22T07:41:42.734Z,2.47
2018-09-22T07:44:12.407Z,3.30
2018-09-22T07:46:42.122Z,3.03
2018-09-22T07:49:11.806Z,3.13
2018-09-22T07:51:41.733Z,2.30
2018-09-22T07:54:11.384Z,2.30
2018-09-22T07:56:41.018Z,2.30
2018-09-22T07:59:10.907Z,3.13
2018-09-22T08:01:40.546Z,2.73
2018-09-22T08:04:10.668Z,2.80
2018-09-22T08:06:40.480Z,2.30
2018-09-22T08:09:10.248Z,1.93
2018-09-22T08:11:40.138Z,2.60
2018-09-22T08:14:09.810Z,2.80
2018-09-22T08:16:39.576Z,3.30
2018-09-22T08:19:09.665Z,2.67
2018-09-22T08:21:39.443Z,2.50
2018-09-22T08:24:09.181Z,2.17
2018-09-22T08:26:39.252Z,2.90
2018-09-22T08:29:09.165Z,3.03
2018-09-22T08:31:39.269Z,2.73
2018-09-22T08:34:09.010Z,3.40
2018-09-22T08:36:38.768Z,2.77
2018-09-22T08:39:11.125Z,2.43
2018-09-22T08:41:41.548Z,3.00
2018-09-22T08:44:11.302Z,2.40
2018-09-22T08:46:41.021Z,2.73
2018-09-22T08:49:10.891Z,2.10
2018-09-22T08:51:40.663Z,3.47
2018-09-22T08:54:10.507Z,2.50
2018-09-22T08:56:40.256Z,2.53
2018-09-22T08:59:10.009Z,2.20
2018-09-22T09:01:39.868Z,2.43
2018-09-22T09:04:09.612Z,3.67
2018-09-22T09:06:39.316Z,2.73
2018-09-22T09:09:10.088Z,2.57
2018-09-22T09:11:39.929Z,1.97
2018-09-22T09:14:09.934Z,2.63
2018-09-22T09:16:39.603Z,2.70
2018-09-22T09:19:09.380Z,2.80
2018-09-22T09:21:39.110Z,3.13
2018-09-22T09:24:11.365Z,2.73
2018-09-22T09:26:41.233Z,3.03
2018-09-22T09:29:11.184Z,2.13
2018-09-22T09:31:43.441Z,2.53
2018-09-22T09:34:13.156Z,2.30
2018-09-22T09:36:43.096Z,2.23
2018-09-22T09:39:12.938Z,2.30
2018-09-22T09:41:43.891Z,1.87
2018-09-22T09:44:14.767Z,2.37
2018-09-22T09:46:45.972Z,2.20
2018-09-22T09:49:16.040Z,2.57
2018-09-22T09:51:45.881Z,2.13
2018-09-22T09:54:16.065Z,1.90
2018-09-22T09:56:46.901Z,2.47
2018-09-22T09:59:17.059Z,2.13
2018-09-22T10:01:47.407Z,1.67
2018-09-22T10:04:17.508Z,1.60
2018-09-22T10:06:47.380Z,2.13
2018-09-22T10:09:17.108Z,2.17
2018-09-22T10:11:46.944Z,2.50
2018-09-22T10:14:16.985Z,1.97
2018-09-22T10:16:46.831Z,2.07
2018-09-22T10:19:16.641Z,3.80
2018-09-22T10:21:46.667Z,3.97
2018-09-22T10:24:16.373Z,2.70
2018-09-22T10:26:46.178Z,2.43
2018-09-22T10:29:15.888Z,2.50
2018-09-22T10:31:45.677Z,2.97
2018-09-22T10:34:15.312Z,2.10
2018-09-22T10:36:45.104Z,2.50
2018-09-22T10:39:14.833Z,2.30
2018-09-22T10:41:44.543Z,3.07
2018-09-22T10:44:14.219Z,2.03
2018-09-22T10:46:44.090Z,2.40
2018-09-22T10:49:13.776Z,3.20
2018-09-22T10:51:43.505Z,2.00
2018-09-22T10:54:13.159Z,3.43
2018-09-22T10:56:42.937Z,1.90
2018-09-22T10:59:12.598Z,2.30
2018-09-22T11:01:42.368Z,2.20
2018-09-22T11:04:12.189Z,2.10
2018-09-22T11:06:41.973Z,2.60
2018-09-22T11:09:11.810Z,2.30
2018-09-22T11:11:41.471Z,2.20
2018-09-22T11:14:11.237Z,2.10
2018-09-22T11:16:41.000Z,2.10
2018-09-22T11:19:10.676Z,2.33
2018-09-22T11:21:40.318Z,2.33
2018-09-22T11:24:10.016Z,2.17
2018-09-22T11:26:39.723Z,2.00
2018-09-22T11:29:09.516Z,2.40
2018-09-22T11:31:39.249Z,2.00
2018-09-22T11:34:08.969Z,2.47
2018-09-22T11:36:38.697Z,2.80
2018-09-22T11:39:10.671Z,2.50
2018-09-22T11:41:40.394Z,2.40
2018-09-22T11:44:10.194Z,2.80
2018-09-22T11:46:39.922Z,2.43
2018-09-22T11:49:09.574Z,2.00
2018-09-22T11:51:39.357Z,1.90
2018-09-22T11:54:09.128Z,1.77
2018-09-22T11:56:39.277Z,2.50
2018-09-22T11:59:09.120Z,2.43
2018-09-22T12:01:39.135Z,2.53
2018-09-22T12:04:09.112Z,2.00
2018-09-22T12:06:39.162Z,1.80
2018-09-22T12:09:11.257Z,2.37
2018-09-22T12:11:41.657Z,2.50
2018-09-22T12:14:14.600Z,1.90
2018-09-22T12:16:44.383Z,2.47
2018-09-22T12:19:14.160Z,1.90
2018-09-22T12:21:43.828Z,2.47
2018-09-22T12:24:13.546Z,2.07
2018-09-22T12:26:43.384Z,2.60
2018-09-22T12:29:13.128Z,2.33
2018-09-22T12:31:42.968Z,2.47
2018-09-22T12:34:12.797Z,1.57
2018-09-22T12:36:42.756Z,2.00
2018-09-22T12:39:13.375Z,2.00
2018-09-22T12:41:43.036Z,2.03
2018-09-22T12:44:12.895Z,2.10
2018-09-22T12:46:42.657Z,1.93
2018-09-22T12:49:12.322Z,2.00
2018-09-22T12:51:42.089Z,1.80
2018-09-22T12:54:11.823Z,2.40
2018-09-22T12:56:41.651Z,2.00
2018-09-22T12:59:11.384Z,2.57
2018-09-22T13:01:41.096Z,2.30
2018-09-22T13:04:10.848Z,2.03
2018-09-22T13:06:40.803Z,3.30
2018-09-22T13:09:11.578Z,2.10
2018-09-22T13:11:41.357Z,2.63
2018-09-22T13:14:11.167Z,1.70
2018-09-22T13:16:41.188Z,2.23
2018-09-22T13:19:10.951Z,2.63
2018-09-22T13:21:40.668Z,2.87
2018-09-22T13:24:10.490Z,3.07
2018-09-22T13:26:40.265Z,3.90
2018-09-22T13:29:10.123Z,2.30
2018-09-22T13:31:39.903Z,3.37
2018-09-22T13:34:09.836Z,2.20
2018-09-22T13:36:39.691Z,2.70
2018-09-22T13:39:12.137Z,3.97
2018-09-22T13:41:42.434Z,3.00
2018-09-22T13:44:12.275Z,3.10
2018-09-22T13:46:42.053Z,4.33
2018-09-22T13:49:11.796Z,4.07
2018-09-22T13:51:41.613Z,2.57
2018-09-22T13:54:11.312Z,2.90
2018-09-22T13:56:41.048Z,3.30
2018-09-22T13:59:10.765Z,2.27
2018-09-22T14:01:40.431Z,3.60
2018-09-22T14:04:10.130Z,2.90
2018-09-22T14:06:39.866Z,3.57
2018-09-22T14:09:12.512Z,2.80
2018-09-22T14:11:43.019Z,2.80
2018-09-22T14:14:12.840Z,2.80
2018-09-22T14:16:43.373Z,2.83
2018-09-22T14:19:13.225Z,2.30
2018-09-22T14:21:43.236Z,2.50
2018-09-22T14:24:12.996Z,2.63
2018-09-22T14:26:42.710Z,2.80
2018-09-22T14:29:12.397Z,2.00
2018-09-22T14:31:42.116Z,5.13
2018-09-22T14:34:11.917Z,1.57
2018-09-22T14:36:41.703Z,1.30
2018-09-22T14:39:11.480Z,1.70
2018-09-22T14:41:41.200Z,1.40
2018-09-22T14:44:10.953Z,2.07
2018-09-22T14:46:42.871Z,1.60
2018-09-22T14:49:12.821Z,1.90
2018-09-22T14:51:42.709Z,2.47
2018-09-22T14:54:12.551Z,4.93
2018-09-22T14:56:42.231Z,1.30
2018-09-22T14:59:12.100Z,1.60
2018-09-22T15:01:41.826Z,1.90
2018-09-22T15:04:11.534Z,2.33
2018-09-22T15:06:41.795Z,1.83
2018-09-22T15:09:11.597Z,2.10
2018-09-22T15:11:41.974Z,2.20
2018-09-22T15:14:11.873Z,2.07
2018-09-22T15:16:41.993Z,2.30
2018-09-22T15:19:12.037Z,1.40
2018-09-22T15:21:41.777Z,1.90
2018-09-22T15:24:11.913Z,2.40
2018-09-22T15:26:42.241Z,1.80
2018-09-22T15:29:12.014Z,1.50
2018-09-22T15:31:42.325Z,1.53
2018-09-22T15:34:12.041Z,2.27
2018-09-22T15:36:41.768Z,2.10
2018-09-22T15:39:11.612Z,1.87
2018-09-22T15:41:41.321Z,2.10
2018-09-22T15:44:11.132Z,2.00
2018-09-22T15:46:40.824Z,1.83
2018-09-22T15:49:10.512Z,2.03
2018-09-22T15:51:40.233Z,2.30
2018-09-22T15:54:12.278Z,2.40
2018-09-22T15:56:42.031Z,2.20
2018-09-22T15:59:11.779Z,2.37
2018-09-22T16:01:41.613Z,2.53
2018-09-22T16:04:11.314Z,2.00
2018-09-22T16:06:41.026Z,2.60
2018-09-22T16:09:11.022Z,2.07
2018-09-22T16:11:40.676Z,2.30
2018-09-22T16:14:10.403Z,2.57
2018-09-22T16:16:40.545Z,2.10
2018-09-22T16:19:10.309Z,2.00
2018-09-22T16:21:40.153Z,3.70
2018-09-22T16:24:11.453Z,1.90
2018-09-22T16:26:42.232Z,2.33
2018-09-22T16:29:11.906Z,2.10
2018-09-22T16:31:41.607Z,3.47
2018-09-22T16:34:12.184Z,2.87
2018-09-22T16:36:41.875Z,4.20
2018-09-22T16:39:12.450Z,2.97
2018-09-22T16:41:42.266Z,4.40
2018-09-22T16:44:12.272Z,2.60
2018-09-22T16:46:42.144Z,5.00
2018-09-22T16:49:12.124Z,2.60
2018-09-22T16:51:41.976Z,3.30
2018-09-22T16:54:11.777Z,3.00
2018-09-22T16:56:41.646Z,2.90
2018-09-22T16:59:11.364Z,3.13
2018-09-22T17:01:41.802Z,3.30
2018-09-22T17:04:11.640Z,2.80
2018-09-22T17:06:41.420Z,4.27
2018-09-22T17:09:11.124Z,3.40
2018-09-22T17:11:41.176Z,3.37
2018-09-22T17:14:10.945Z,3.27
2018-09-22T17:16:40.747Z,2.93
2018-09-22T17:19:12.496Z,3.50
2018-09-22T17:21:43.220Z,2.90
2018-09-22T17:24:13.017Z,3.43
2018-09-22T17:26:42.661Z,3.87
2018-09-22T17:29:12.434Z,4.00
2018-09-22T17:31:42.146Z,3.77
2018-09-22T17:34:11.960Z,3.60
2018-09-22T17:36:41.655Z,3.90
2018-09-22T17:39:12.033Z,4.00
2018-09-22T17:41:41.749Z,4.33
2018-09-22T17:44:11.476Z,4.80
2018-09-22T17:46:41.240Z,4.23
2018-09-22T17:49:11.139Z,4.97
2018-09-22T17:51:40.985Z,4.83
2018-09-22T17:54:10.652Z,4.90
2018-09-22T17:56:40.410Z,5.03
2018-09-22T17:59:10.162Z,3.50
2018-09-22T18:01:39.946Z,4.57
2018-09-22T18:04:09.817Z,4.00
2018-09-22T18:06:39.776Z,3.70
2018-09-22T18:09:10.073Z,2.77
2018-09-22T18:11:40.396Z,3.33
2018-09-22T18:14:10.261Z,2.53
2018-09-22T18:16:39.991Z,4.03
2018-09-22T18:19:09.752Z,3.30
2018-09-22T18:21:39.607Z,3.30
2018-09-22T18:24:09.427Z,3.70
2018-09-22T18:26:39.194Z,3.10
2018-09-22T18:29:09.027Z,3.33
2018-09-22T18:31:38.808Z,3.90
2018-09-22T18:34:08.701Z,4.83
2018-09-22T18:36:38.376Z,5.90
2018-09-22T18:39:09.382Z,4.10
2018-09-22T18:41:39.209Z,5.37
2018-09-22T18:44:09.066Z,5.60
2018-09-22T18:46:38.857Z,5.80
2018-09-22T18:49:08.636Z,5.97
2018-09-22T18:51:38.547Z,7.40
2018-09-22T18:54:08.312Z,6.53
2018-09-22T18:56:38.122Z,5.60
2018-09-22T18:59:07.967Z,5.13
2018-09-22T19:01:37.691Z,6.00
2018-09-22T19:04:07.640Z,5.10
2018-09-22T19:06:37.590Z,5.23
2018-09-22T19:09:09.669Z,4.83
2018-09-22T19:11:39.779Z,4.77
2018-09-22T19:14:14.627Z,4.33
2018-09-22T19:16:49.170Z,3.80
2018-09-22T19:19:26.117Z,4.13
2018-09-22T19:22:00.629Z,4.10
2018-09-22T19:24:39.516Z,4.40
2018-09-22T19:27:14.611Z,4.47
2018-09-22T19:29:52.957Z,5.97
2018-09-22T19:32:29.207Z,5.03
2018-09-22T19:35:03.523Z,5.47
2018-09-22T19:37:37.745Z,5.20
2018-09-22T19:40:11.305Z,4.50
2018-09-22T19:42:48.904Z,5.10
2018-09-22T19:45:23.038Z,4.50
2018-09-22T19:48:02.250Z,4.40
2018-09-22T19:50:37.194Z,4.97
2018-09-22T19:53:07.256Z,5.33
2018-09-22T19:55:36.973Z,4.97
2018-09-22T19:58:06.789Z,4.90
2018-09-22T20:00:36.390Z,4.70
2018-09-22T20:03:06.160Z,4.00
2018-09-22T20:05:36.421Z,5.10
2018-09-22T20:08:06.730Z,5.30
2018-09-22T20:10:38.187Z,5.70
2018-09-22T20:13:08.270Z,6.10
2018-09-22T20:15:37.973Z,5.50
2018-09-22T20:18:07.724Z,5.90
2018-09-22T20:20:37.909Z,5.27
2018-09-22T20:23:07.815Z,4.87
2018-09-22T20:25:38.030Z,4.93
2018-09-22T20:28:08.264Z,5.60
2018-09-22T20:30:37.963Z,5.83
2018-09-22T20:33:07.753Z,4.23
2018-09-22T20:35:37.691Z,5.43
2018-09-22T20:38:07.507Z,5.20
2018-09-22T20:40:37.214Z,3.97
2018-09-22T20:43:07.048Z,4.43
2018-09-22T20:45:36.765Z,5.03
2018-09-22T20:48:06.564Z,5.10
2018-09-22T20:50:36.338Z,4.00
2018-09-22T20:53:06.418Z,4.30
2018-09-22T20:55:36.275Z,4.60
2018-09-22T20:58:06.524Z,4.23
2018-09-22T21:00:36.240Z,4.40
2018-09-22T21:03:06.068Z,4.63
2018-09-22T21:05:35.769Z,4.40
2018-09-22T21:08:05.466Z,4.50
2018-09-22T21:10:35.280Z,4.67
2018-09-22T21:13:04.931Z,4.67
2018-09-22T21:15:34.683Z,4.43
2018-09-22T21:18:04.437Z,4.03
2018-09-22T21:20:34.168Z,5.00
2018-09-22T21:23:03.804Z,4.70
2018-09-22T21:25:33.664Z,5.47
2018-09-22T21:28:03.495Z,4.40
2018-09-22T21:30:33.360Z,4.23
2018-09-22T21:33:03.037Z,4.67
2018-09-22T21:35:32.695Z,3.77
2018-09-22T21:38:02.396Z,3.47
2018-09-22T21:40:32.167Z,3.90
2018-09-22T21:43:01.973Z,2.83
2018-09-22T21:45:31.758Z,3.00
2018-09-22T21:48:01.506Z,2.93
2018-09-22T21:50:31.241Z,2.67
2018-09-22T21:53:00.902Z,2.53
2018-09-22T21:55:30.659Z,2.80
2018-09-22T21:58:00.387Z,2.70
2018-09-22T22:00:30.111Z,2.63
2018-09-22T22:02:59.772Z,4.40
2018-09-22T22:05:29.562Z,3.67
2018-09-22T22:07:59.256Z,5.27
2018-09-22T22:10:28.921Z,5.50
2018-09-22T22:12:58.595Z,5.57
2018-09-22T22:15:28.357Z,6.00
2018-09-22T22:17:57.975Z,6.00
2018-09-22T22:20:27.672Z,6.03
2018-09-22T22:22:57.396Z,6.03
2018-09-22T22:25:27.164Z,6.70
2018-09-22T22:27:56.915Z,6.80
2018-09-22T22:30:26.694Z,7.47
2018-09-22T22:32:56.604Z,6.30
2018-09-22T22:35:26.396Z,7.90
2018-09-22T22:37:56.247Z,8.50
2018-09-22T22:40:25.973Z,8.13
2018-09-22T22:42:55.602Z,7.20
2018-09-22T22:45:26.247Z,5.70
2018-09-22T22:47:55.942Z,6.50
2018-09-22T22:50:25.657Z,7.40
2018-09-22T22:52:55.710Z,7.40
2018-09-22T22:55:25.463Z,6.83
2018-09-22T22:57:55.111Z,7.33
2018-09-22T23:00:24.783Z,6.73
2018-09-22T23:02:54.445Z,9.50
2018-09-22T23:05:24.191Z,7.60
2018-09-22T23:07:53.959Z,9.40
2018-09-22T23:10:23.662Z,8.00
2018-09-22T23:12:53.401Z,8.10
2018-09-22T23:15:23.107Z,9.27
2018-09-22T23:17:52.939Z,7.93
2018-09-22T23:20:22.623Z,7.25
2018-09-22T23:22:52.417Z,9.60
2018-09-22T23:25:22.167Z,8.33
2018-09-22T23:27:51.842Z,8.93
2018-09-22T23:30:21.552Z,9.13
2018-09-22T23:32:51.207Z,9.65
2018-09-22T23:35:20.968Z,8.78
2018-09-22T23:37:50.668Z,8.77
2018-09-22T23:40:20.461Z,8.10
2018-09-22T23:42:50.329Z,7.97
2018-09-22T23:45:19.989Z,8.30
2018-09-22T23:47:49.747Z,8.30
2018-09-22T23:50:19.491Z,8.53
2018-09-22T23:52:49.161Z,8.03
2018-09-22T23:55:18.848Z,7.47
2018-09-22T23:57:48.572Z,7.37
